AirNav   $300 off a Bose A20 aviation headset
 
 959 users online  

CN95 Heritage Field Airport
Stockton, California, USA

GOING TO STOCKTON?


FAA INFORMATION EFFECTIVE 28 FEBRUARY 2019

Location

FAA Identifier: CN95
Lat/Long: 37-59-35.9000N / 121-29-32.2450W
37-59.598333N / 121-29.537417W
37.9933056 / -121.4922903
(estimated)
Elevation: -24 ft. / -7 m (estimated)
From city: 10 miles WNW of STOCKTON, CA
Time zone: UTC -8 (UTC -7 during Daylight Saving Time)
Zip code: 95219

Airport Operations

Airport use: Private use. Permission required prior to landing
Activation date: 11/2016
Control tower: no
ARTCC: OAKLAND CENTER
FSS: RANCHO MURIETA FLIGHT SERVICE STATION
Attendance: UNATNDD
Segmented circle: no

Airport Communications

WX AWOS-3 at C83 (12 nm SW): 123.775 (925-634-0906)
WX ASOS at SCK (13 nm SE): PHONE 209-982-4270
WX AWOS-AV at O88 (16 nm NW): 127.075 (707-374-5396)
WX AWOS-3 at TCY (18 nm S): 118.375 (209-831-4335)

Nearby radio navigation aids

VOR radial/distance  VOR name  Freq  Var
LINr241/23.6LINDEN VOR/DME114.8017E
CCRr080/26.3CONCORD VOR/DME117.0017E
SACr157/27.2SACRAMENTO VORTAC115.2017E
MODr294/33.5MODESTO VOR/DME114.6017E
OAKr048/38.2OAKLAND VOR/DME116.8017E

 
NDB name  Hdg/Dist  Freq  Var  ID
TRACY338/18.220315ETCY - -.-. -.--

Airport Services

Runway Information

Runway 13/31

Dimensions: 2837 x 50 ft. / 865 x 15 m
Surface: asphalt
RUNWAY 13  RUNWAY 31
Latitude: 37-59.775500N37-59.421167N
Longitude: 121-29.730000W121-29.344833W
Elevation: -24.0 ft.-25.0 ft.
Traffic pattern: leftleft
Touchdown point: yes, no lightsyes, no lights

Airport Ownership and Management from official FAA records

Ownership: Privately-owned
Owner: HERITAGE LAND CO
P.O. BOX 487
STOCKTON, CA 95201
Phone 209-469-7979
Manager: TONY RAMIREZ
P.O. BOX 487
STOCKTON, CA 95201
Phone 209-469-7979

Instrument Procedures

There are no published instrument procedures at CN95.

Some nearby airports with instrument procedures:

C83 - Byron Airport (12 nm SW)
KSCK - Stockton Metropolitan Airport (13 nm SE)
O88 - Rio Vista Municipal Airport (16 nm NW)
1O3 - Lodi Airport (16 nm NE)
KTCY - Tracy Municipal Airport (18 nm S)
 
Loc | Ops | Rwys | IFR | FBO | Links
Com | Nav | Svcs | Stats | Notes
Aerial photo
No photo
 
Airport distance calculator
Flying to Heritage Field Airport? Find the distance to fly.

From to CN95

Sunrise and sunset
Times for 18-Mar-2019
 Local
(UTC-7)
 Zulu
(UTC)
Morning civil twilight06:4713:47
Sunrise07:1314:13
Sunset19:1502:15
Evening civil twilight19:4102:41

Current date and time
Zulu (UTC)  18-Mar-2019 22:57:41
Local (UTC-7)  18-Mar-2019 15:57:41
 
METAR
KC83 
12nm SW 
182235Z AUTO VRB04KT 10SM CLR 22/10 A2993 RMK AO2
KSCK 
15nm SE 
182155Z 05006KT 10SM CLR 26/09 A2992 RMK AO2 SLP132 T02560094
KTCY 
18nm S 
182235Z AUTO 00000KT 10SM CLR 23/11 A2992 RMK A01
KLVK 
23nm SW 
182253Z 05008KT 10SM CLR 22/11 A2991 RMK AO2 SLP127 T02220111
TAF
KSCK 
15nm SE 
181738Z 1818/1918 18003KT P6SM SCT250 FM190300 32003KT P6SM BKN250
NOTAMs
Click for the latest NOTAMs
NOTAMs are issued by the DoD/FAA and will open in a separate window not controlled by AirNav.

 

 
 

Would you like to see your business listed on this page?

 If your business provides an interesting product or service to pilots, flight crews, aircraft, or users of the Heritage Field Airport, you should consider listing it here.  To start the listing process, click on the button below
 
Add a business
 

Other Pages about Heritage Field Airport

Update a link
 
Copyright © AirNav, LLC. All rights reserved. Privacy Policy  Contact